sensor_id;sensor_type;location;lat;lon;timestamp;temperature;humidity
802;DHT22;383;48.766;9.270;2023-10-08T00:02:16;14.00;75.40
802;DHT22;383;48.766;9.270;2023-10-08T00:04:48;14.00;75.70
802;DHT22;383;48.766;9.270;2023-10-08T00:07:17;14.00;75.70
802;DHT22;383;48.766;9.270;2023-10-08T00:09:47;14.00;76.00
802;DHT22;383;48.766;9.270;2023-10-08T00:12:14;14.00;75.70
802;DHT22;383;48.766;9.270;2023-10-08T00:14:42;14.10;75.60
802;DHT22;383;48.766;9.270;2023-10-08T00:17:11;14.10;75.60
802;DHT22;383;48.766;9.270;2023-10-08T00:19:38;14.10;75.40
802;DHT22;383;48.766;9.270;2023-10-08T00:22:07;14.10;75.40
802;DHT22;383;48.766;9.270;2023-10-08T00:24:34;14.20;75.80
802;DHT22;383;48.766;9.270;2023-10-08T00:27:03;14.10;75.70
802;DHT22;383;48.766;9.270;2023-10-08T00:29:32;14.10;75.40
802;DHT22;383;48.766;9.270;2023-10-08T00:31:59;14.20;75.30
802;DHT22;383;48.766;9.270;2023-10-08T00:34:28;14.20;75.40
802;DHT22;383;48.766;9.270;2023-10-08T00:36:55;14.30;75.20
802;DHT22;383;48.766;9.270;2023-10-08T00:39:24;14.30;75.30
802;DHT22;383;48.766;9.270;2023-10-08T00:41:53;14.30;74.60
802;DHT22;383;48.766;9.270;2023-10-08T00:44:23;14.40;75.20
802;DHT22;383;48.766;9.270;2023-10-08T00:46:55;14.30;75.60
802;DHT22;383;48.766;9.270;2023-10-08T00:49:23;14.30;76.50
802;DHT22;383;48.766;9.270;2023-10-08T00:51:51;14.30;75.80
802;DHT22;383;48.766;9.270;2023-10-08T00:54:51;14.40;76.10
802;DHT22;383;48.766;9.270;2023-10-08T00:57:27;14.30;75.80
802;DHT22;383;48.766;9.270;2023-10-08T00:59:55;14.30;75.60
802;DHT22;383;48.766;9.270;2023-10-08T01:02:26;14.30;75.80
802;DHT22;383;48.766;9.270;2023-10-08T01:04:54;14.30;75.70
802;DHT22;383;48.766;9.270;2023-10-08T01:07:22;14.40;76.00
802;DHT22;383;48.766;9.270;2023-10-08T01:09:51;14.40;76.30
802;DHT22;383;48.766;9.270;2023-10-08T01:12:26;14.50;76.90
802;DHT22;383;48.766;9.270;2023-10-08T01:14:59;14.50;77.00
802;DHT22;383;48.766;9.270;2023-10-08T01:17:41;14.50;76.70
802;DHT22;383;48.766;9.270;2023-10-08T01:20:12;14.60;77.50
802;DHT22;383;48.766;9.270;2023-10-08T01:23:00;14.60;77.80
802;DHT22;383;48.766;9.270;2023-10-08T01:25:29;14.60;78.20
802;DHT22;383;48.766;9.270;2023-10-08T01:27:56;14.50;78.20
802;DHT22;383;48.766;9.270;2023-10-08T01:30:26;14.50;78.10
802;DHT22;383;48.766;9.270;2023-10-08T01:32:59;14.50;78.10
802;DHT22;383;48.766;9.270;2023-10-08T01:35:28;14.40;78.30
802;DHT22;383;48.766;9.270;2023-10-08T01:37:58;14.40;78.20
802;DHT22;383;48.766;9.270;2023-10-08T01:40:26;14.40;78.50
802;DHT22;383;48.766;9.270;2023-10-08T01:42:54;14.30;79.10
802;DHT22;383;48.766;9.270;2023-10-08T01:45:25;14.30;79.30
802;DHT22;383;48.766;9.270;2023-10-08T01:47:52;14.30;79.40
802;DHT22;383;48.766;9.270;2023-10-08T01:50:20;14.30;79.80
802;DHT22;383;48.766;9.270;2023-10-08T01:52:47;14.30;79.90
802;DHT22;383;48.766;9.270;2023-10-08T01:55:16;14.30;79.90
802;DHT22;383;48.766;9.270;2023-10-08T01:57:44;14.30;80.20
802;DHT22;383;48.766;9.270;2023-10-08T02:00:11;14.30;80.30
802;DHT22;383;48.766;9.270;2023-10-08T02:02:40;14.30;80.40
802;DHT22;383;48.766;9.270;2023-10-08T02:05:07;14.30;81.00
802;DHT22;383;48.766;9.270;2023-10-08T02:07:35;14.20;81.10
802;DHT22;383;48.766;9.270;2023-10-08T02:10:01;14.10;81.10
802;DHT22;383;48.766;9.270;2023-10-08T02:12:30;14.10;81.20
802;DHT22;383;48.766;9.270;2023-10-08T02:14:56;14.00;81.40
802;DHT22;383;48.766;9.270;2023-10-08T02:17:23;14.00;81.50
802;DHT22;383;48.766;9.270;2023-10-08T02:19:50;14.00;81.80
802;DHT22;383;48.766;9.270;2023-10-08T02:22:16;13.90;81.90
802;DHT22;383;48.766;9.270;2023-10-08T02:24:45;13.90;82.30
802;DHT22;383;48.766;9.270;2023-10-08T02:27:11;13.90;82.30
802;DHT22;383;48.766;9.270;2023-10-08T02:29:42;13.80;82.80
802;DHT22;383;48.766;9.270;2023-10-08T02:32:08;13.80;82.80
802;DHT22;383;48.766;9.270;2023-10-08T02:34:35;13.70;83.00
802;DHT22;383;48.766;9.270;2023-10-08T02:37:02;13.60;83.00
802;DHT22;383;48.766;9.270;2023-10-08T02:39:30;13.50;83.20
802;DHT22;383;48.766;9.270;2023-10-08T02:41:58;13.40;83.10
802;DHT22;383;48.766;9.270;2023-10-08T02:44:25;13.30;83.50
802;DHT22;383;48.766;9.270;2023-10-08T02:46:54;13.30;83.40
802;DHT22;383;48.766;9.270;2023-10-08T02:49:21;13.20;83.50
802;DHT22;383;48.766;9.270;2023-10-08T02:51:49;13.20;83.60
802;DHT22;383;48.766;9.270;2023-10-08T02:54:16;13.20;83.60
802;DHT22;383;48.766;9.270;2023-10-08T02:56:44;13.10;84.00
802;DHT22;383;48.766;9.270;2023-10-08T02:59:11;13.10;83.90
802;DHT22;383;48.766;9.270;2023-10-08T03:01:39;13.00;84.00
802;DHT22;383;48.766;9.270;2023-10-08T03:04:08;13.00;83.20
802;DHT22;383;48.766;9.270;2023-10-08T03:06:43;13.00;83.20
802;DHT22;383;48.766;9.270;2023-10-08T03:09:10;13.00;83.50
802;DHT22;383;48.766;9.270;2023-10-08T03:11:39;12.90;83.50
802;DHT22;383;48.766;9.270;2023-10-08T03:14:12;12.90;83.50
802;DHT22;383;48.766;9.270;2023-10-08T03:16:48;12.90;83.50
802;DHT22;383;48.766;9.270;2023-10-08T03:19:16;12.90;83.60
802;DHT22;383;48.766;9.270;2023-10-08T03:21:45;12.90;83.20
802;DHT22;383;48.766;9.270;2023-10-08T03:24:16;12.90;83.50
802;DHT22;383;48.766;9.270;2023-10-08T03:27:05;12.90;83.40
802;DHT22;383;48.766;9.270;2023-10-08T03:29:41;12.90;83.10
802;DHT22;383;48.766;9.270;2023-10-08T03:32:08;12.80;83.20
802;DHT22;383;48.766;9.270;2023-10-08T03:34:44;12.80;83.70
802;DHT22;383;48.766;9.270;2023-10-08T03:37:12;12.80;83.90
802;DHT22;383;48.766;9.270;2023-10-08T03:39:45;12.80;84.10
802;DHT22;383;48.766;9.270;2023-10-08T03:42:25;12.80;84.10
802;DHT22;383;48.766;9.270;2023-10-08T03:44:55;12.80;83.90
802;DHT22;383;48.766;9.270;2023-10-08T03:47:23;12.70;83.70
802;DHT22;383;48.766;9.270;2023-10-08T03:49:53;12.70;83.60
802;DHT22;383;48.766;9.270;2023-10-08T03:52:20;12.70;83.90
802;DHT22;383;48.766;9.270;2023-10-08T03:54:49;12.80;83.90
802;DHT22;383;48.766;9.270;2023-10-08T03:57:30;12.80;84.10
802;DHT22;383;48.766;9.270;2023-10-08T04:00:08;12.70;84.30
802;DHT22;383;48.766;9.270;2023-10-08T04:02:38;12.70;84.40
802;DHT22;383;48.766;9.270;2023-10-08T04:05:08;12.70;84.30
802;DHT22;383;48.766;9.270;2023-10-08T04:07:45;12.60;84.30
802;DHT22;383;48.766;9.270;2023-10-08T04:10:32;12.60;84.40
802;DHT22;383;48.766;9.270;2023-10-08T04:13:25;12.50;84.70
802;DHT22;383;48.766;9.270;2023-10-08T04:15:53;12.50;84.70
802;DHT22;383;48.766;9.270;2023-10-08T04:18:20;12.60;84.70
802;DHT22;383;48.766;9.270;2023-10-08T04:20:48;12.50;84.90
802;DHT22;383;48.766;9.270;2023-10-08T04:23:26;12.40;85.10
802;DHT22;383;48.766;9.270;2023-10-08T04:25:54;12.40;85.20
802;DHT22;383;48.766;9.270;2023-10-08T04:28:21;12.40;85.10
802;DHT22;383;48.766;9.270;2023-10-08T04:30:48;12.40;85.20
802;DHT22;383;48.766;9.270;2023-10-08T04:33:16;12.40;85.30
802;DHT22;383;48.766;9.270;2023-10-08T04:35:45;12.40;85.30
802;DHT22;383;48.766;9.270;2023-10-08T04:38:20;12.40;85.60
802;DHT22;383;48.766;9.270;2023-10-08T04:40:48;12.50;85.60
802;DHT22;383;48.766;9.270;2023-10-08T04:43:17;12.40;85.70
802;DHT22;383;48.766;9.270;2023-10-08T04:45:48;12.40;85.60
802;DHT22;383;48.766;9.270;2023-10-08T04:48:16;12.40;85.90
802;DHT22;383;48.766;9.270;2023-10-08T04:50:46;12.50;86.00
802;DHT22;383;48.766;9.270;2023-10-08T04:53:25;12.50;86.10
802;DHT22;383;48.766;9.270;2023-10-08T04:56:00;12.50;86.10
802;DHT22;383;48.766;9.270;2023-10-08T04:58:31;12.50;86.10
802;DHT22;383;48.766;9.270;2023-10-08T05:01:02;12.50;85.90
802;DHT22;383;48.766;9.270;2023-10-08T05:03:56;12.50;86.00
802;DHT22;383;48.766;9.270;2023-10-08T05:06:48;12.50;86.10
802;DHT22;383;48.766;9.270;2023-10-08T05:09:27;12.50;86.40
802;DHT22;383;48.766;9.270;2023-10-08T05:12:06;12.40;86.50
802;DHT22;383;48.766;9.270;2023-10-08T05:14:56;12.50;86.10
802;DHT22;383;48.766;9.270;2023-10-08T05:17:42;12.40;86.30
802;DHT22;383;48.766;9.270;2023-10-08T05:20:23;12.50;86.30
802;DHT22;383;48.766;9.270;2023-10-08T05:23:06;12.40;86.50
802;DHT22;383;48.766;9.270;2023-10-08T05:25:46;12.40;86.70
802;DHT22;383;48.766;9.270;2023-10-08T05:28:23;12.40;86.80
802;DHT22;383;48.766;9.270;2023-10-08T05:30:51;12.40;86.80
802;DHT22;383;48.766;9.270;2023-10-08T05:33:20;12.40;87.10
802;DHT22;383;48.766;9.270;2023-10-08T05:35:52;12.40;87.30
802;DHT22;383;48.766;9.270;2023-10-08T05:38:35;12.30;87.30
802;DHT22;383;48.766;9.270;2023-10-08T05:41:14;12.30;87.40
802;DHT22;383;48.766;9.270;2023-10-08T05:43:53;12.30;87.80
802;DHT22;383;48.766;9.270;2023-10-08T05:46:38;12.30;88.00
802;DHT22;383;48.766;9.270;2023-10-08T05:49:32;12.30;88.00
802;DHT22;383;48.766;9.270;2023-10-08T05:52:09;12.20;88.40
802;DHT22;383;48.766;9.270;2023-10-08T05:54:51;12.20;88.40
802;DHT22;383;48.766;9.270;2023-10-08T05:57:35;12.20;88.50
802;DHT22;383;48.766;9.270;2023-10-08T06:00:13;12.20;88.80
802;DHT22;383;48.766;9.270;2023-10-08T06:02:57;12.20;89.00
802;DHT22;383;48.766;9.270;2023-10-08T06:05:37;12.20;89.30
802;DHT22;383;48.766;9.270;2023-10-08T06:08:14;12.20;89.30
802;DHT22;383;48.766;9.270;2023-10-08T06:10:46;12.20;89.40
802;DHT22;383;48.766;9.270;2023-10-08T06:13:22;12.20;89.40
802;DHT22;383;48.766;9.270;2023-10-08T06:16:10;12.30;89.60
802;DHT22;383;48.766;9.270;2023-10-08T06:18:39;12.30;89.60
802;DHT22;383;48.766;9.270;2023-10-08T06:21:06;12.30;89.60
802;DHT22;383;48.766;9.270;2023-10-08T06:23:36;12.30;89.70
802;DHT22;383;48.766;9.270;2023-10-08T06:26:04;12.40;89.70
802;DHT22;383;48.766;9.270;2023-10-08T06:28:40;12.40;89.60
802;DHT22;383;48.766;9.270;2023-10-08T06:31:08;12.40;89.70
802;DHT22;383;48.766;9.270;2023-10-08T06:33:38;12.40;89.70
802;DHT22;383;48.766;9.270;2023-10-08T06:36:06;12.40;89.80
802;DHT22;383;48.766;9.270;2023-10-08T06:38:40;12.50;89.70
802;DHT22;383;48.766;9.270;2023-10-08T06:41:11;12.50;89.70
802;DHT22;383;48.766;9.270;2023-10-08T06:43:44;12.50;89.70
802;DHT22;383;48.766;9.270;2023-10-08T06:46:13;12.50;89.80
802;DHT22;383;48.766;9.270;2023-10-08T06:48:41;12.50;89.90
802;DHT22;383;48.766;9.270;2023-10-08T06:51:09;12.60;90.00
802;DHT22;383;48.766;9.270;2023-10-08T06:53:40;12.60;90.00
802;DHT22;383;48.766;9.270;2023-10-08T06:56:07;12.60;90.10
802;DHT22;383;48.766;9.270;2023-10-08T06:58:36;12.70;90.00
802;DHT22;383;48.766;9.270;2023-10-08T07:01:03;12.70;90.00
802;DHT22;383;48.766;9.270;2023-10-08T07:03:34;12.80;90.00
802;DHT22;383;48.766;9.270;2023-10-08T07:06:03;12.80;89.90
802;DHT22;383;48.766;9.270;2023-10-08T07:08:44;12.90;89.60
802;DHT22;383;48.766;9.270;2023-10-08T07:11:12;12.90;89.40
802;DHT22;383;48.766;9.270;2023-10-08T07:13:40;12.90;89.70
802;DHT22;383;48.766;9.270;2023-10-08T07:16:08;12.90;89.70
802;DHT22;383;48.766;9.270;2023-10-08T07:18:36;13.00;89.60
802;DHT22;383;48.766;9.270;2023-10-08T07:21:03;13.10;89.60
802;DHT22;383;48.766;9.270;2023-10-08T07:23:38;13.20;89.90
802;DHT22;383;48.766;9.270;2023-10-08T07:26:24;13.40;89.90
802;DHT22;383;48.766;9.270;2023-10-08T07:28:52;13.60;89.70
802;DHT22;383;48.766;9.270;2023-10-08T07:31:20;13.70;88.50
802;DHT22;383;48.766;9.270;2023-10-08T07:33:48;13.90;88.60
802;DHT22;383;48.766;9.270;2023-10-08T07:36:21;14.10;87.20
802;DHT22;383;48.766;9.270;2023-10-08T07:38:48;14.30;86.40
802;DHT22;383;48.766;9.270;2023-10-08T07:41:15;14.40;85.60
802;DHT22;383;48.766;9.270;2023-10-08T07:43:47;14.60;85.10
802;DHT22;383;48.766;9.270;2023-10-08T07:46:21;14.80;83.50
802;DHT22;383;48.766;9.270;2023-10-08T07:48:47;15.00;82.20
802;DHT22;383;48.766;9.270;2023-10-08T07:51:15;15.10;81.10
802;DHT22;383;48.766;9.270;2023-10-08T07:53:43;15.30;80.20
802;DHT22;383;48.766;9.270;2023-10-08T07:56:10;15.40;80.60
802;DHT22;383;48.766;9.270;2023-10-08T07:58:37;15.60;80.00
802;DHT22;383;48.766;9.270;2023-10-08T08:01:06;15.80;79.30
802;DHT22;383;48.766;9.270;2023-10-08T08:03:35;15.90;79.00
802;DHT22;383;48.766;9.270;2023-10-08T08:06:03;16.10;79.10
802;DHT22;383;48.766;9.270;2023-10-08T08:08:31;16.20;79.30
802;DHT22;383;48.766;9.270;2023-10-08T08:10:59;16.40;79.50
802;DHT22;383;48.766;9.270;2023-10-08T08:13:31;16.60;78.90
802;DHT22;383;48.766;9.270;2023-10-08T08:15:59;16.70;77.70
802;DHT22;383;48.766;9.270;2023-10-08T08:18:36;16.80;77.30
802;DHT22;383;48.766;9.270;2023-10-08T08:21:03;16.80;76.90
802;DHT22;383;48.766;9.270;2023-10-08T08:23:30;16.70;76.90
802;DHT22;383;48.766;9.270;2023-10-08T08:25:58;16.70;77.80
802;DHT22;383;48.766;9.270;2023-10-08T08:28:38;16.70;78.90
802;DHT22;383;48.766;9.270;2023-10-08T08:31:06;16.80;78.60
802;DHT22;383;48.766;9.270;2023-10-08T08:33:42;17.00;78.60
802;DHT22;383;48.766;9.270;2023-10-08T08:36:26;17.10;73.70
802;DHT22;383;48.766;9.270;2023-10-08T08:38:53;17.10;73.80
802;DHT22;383;48.766;9.270;2023-10-08T08:41:20;17.10;74.60
802;DHT22;383;48.766;9.270;2023-10-08T08:43:49;17.10;74.60
802;DHT22;383;48.766;9.270;2023-10-08T08:46:25;17.20;74.50
802;DHT22;383;48.766;9.270;2023-10-08T08:48:55;17.20;73.80
802;DHT22;383;48.766;9.270;2023-10-08T08:51:23;17.30;73.80
802;DHT22;383;48.766;9.270;2023-10-08T08:53:50;17.30;74.00
802;DHT22;383;48.766;9.270;2023-10-08T08:56:18;17.50;74.00
802;DHT22;383;48.766;9.270;2023-10-08T08:58:46;17.60;72.90
802;DHT22;383;48.766;9.270;2023-10-08T09:01:13;17.80;73.20
802;DHT22;383;48.766;9.270;2023-10-08T09:03:41;17.90;72.60
802;DHT22;383;48.766;9.270;2023-10-08T09:06:09;18.10;72.50
802;DHT22;383;48.766;9.270;2023-10-08T09:08:37;18.10;72.50
802;DHT22;383;48.766;9.270;2023-10-08T09:11:07;18.20;72.40
802;DHT22;383;48.766;9.270;2023-10-08T09:13:36;18.30;72.40
802;DHT22;383;48.766;9.270;2023-10-08T09:16:12;18.40;71.70
802;DHT22;383;48.766;9.270;2023-10-08T09:18:41;18.50;71.10
802;DHT22;383;48.766;9.270;2023-10-08T09:21:14;18.60;70.70
802;DHT22;383;48.766;9.270;2023-10-08T09:23:42;18.70;70.10
802;DHT22;383;48.766;9.270;2023-10-08T09:26:13;18.80;70.00
802;DHT22;383;48.766;9.270;2023-10-08T09:28:44;19.00;69.90
802;DHT22;383;48.766;9.270;2023-10-08T09:31:12;19.20;67.20
802;DHT22;383;48.766;9.270;2023-10-08T09:33:39;19.40;67.00
802;DHT22;383;48.766;9.270;2023-10-08T09:36:07;19.50;66.60
802;DHT22;383;48.766;9.270;2023-10-08T09:38:37;19.60;65.80
802;DHT22;383;48.766;9.270;2023-10-08T09:41:04;19.80;66.70
802;DHT22;383;48.766;9.270;2023-10-08T09:43:34;20.00;66.30
802;DHT22;383;48.766;9.270;2023-10-08T09:46:09;20.10;63.50
802;DHT22;383;48.766;9.270;2023-10-08T09:48:41;20.40;61.90
802;DHT22;383;48.766;9.270;2023-10-08T09:51:10;20.60;60.50
802;DHT22;383;48.766;9.270;2023-10-08T09:53:51;20.80;60.40
802;DHT22;383;48.766;9.270;2023-10-08T09:56:19;21.10;59.60
802;DHT22;383;48.766;9.270;2023-10-08T09:58:47;21.30;57.00
802;DHT22;383;48.766;9.270;2023-10-08T10:01:16;21.50;58.70
802;DHT22;383;48.766;9.270;2023-10-08T10:03:44;21.70;57.10
802;DHT22;383;48.766;9.270;2023-10-08T10:06:15;21.90;57.00
802;DHT22;383;48.766;9.270;2023-10-08T10:08:45;22.10;56.10
802;DHT22;383;48.766;9.270;2023-10-08T10:11:15;22.20;55.50
802;DHT22;383;48.766;9.270;2023-10-08T10:13:44;22.40;56.20
802;DHT22;383;48.766;9.270;2023-10-08T10:16:13;22.50;55.60
802;DHT22;383;48.766;9.270;2023-10-08T10:18:44;22.60;55.40
802;DHT22;383;48.766;9.270;2023-10-08T10:21:25;22.70;54.70
802;DHT22;383;48.766;9.270;2023-10-08T10:23:54;22.80;56.20
802;DHT22;383;48.766;9.270;2023-10-08T10:26:24;22.80;54.60
802;DHT22;383;48.766;9.270;2023-10-08T10:29:20;22.90;54.40
802;DHT22;383;48.766;9.270;2023-10-08T10:31:48;22.90;54.70
802;DHT22;383;48.766;9.270;2023-10-08T10:34:20;23.00;54.50
802;DHT22;383;48.766;9.270;2023-10-08T10:36:48;23.10;55.20
802;DHT22;383;48.766;9.270;2023-10-08T10:39:17;23.20;55.60
802;DHT22;383;48.766;9.270;2023-10-08T10:41:52;23.20;55.70
802;DHT22;383;48.766;9.270;2023-10-08T10:44:23;23.30;54.10
802;DHT22;383;48.766;9.270;2023-10-08T10:46:49;23.30;53.90
802;DHT22;383;48.766;9.270;2023-10-08T10:49:17;23.40;54.50
802;DHT22;383;48.766;9.270;2023-10-08T10:51:47;23.50;54.40
802;DHT22;383;48.766;9.270;2023-10-08T10:54:17;23.60;53.50
802;DHT22;383;48.766;9.270;2023-10-08T10:56:46;23.60;53.80
802;DHT22;383;48.766;9.270;2023-10-08T10:59:27;23.70;53.30
802;DHT22;383;48.766;9.270;2023-10-08T11:01:53;23.60;53.60
802;DHT22;383;48.766;9.270;2023-10-08T11:04:31;23.50;54.60
802;DHT22;383;48.766;9.270;2023-10-08T11:06:59;23.50;54.50
802;DHT22;383;48.766;9.270;2023-10-08T11:09:28;23.50;54.60
802;DHT22;383;48.766;9.270;2023-10-08T11:12:04;23.50;54.60
802;DHT22;383;48.766;9.270;2023-10-08T11:14:37;23.50;54.10
802;DHT22;383;48.766;9.270;2023-10-08T11:17:13;23.60;53.90
802;DHT22;383;48.766;9.270;2023-10-08T11:19:41;23.60;54.10
802;DHT22;383;48.766;9.270;2023-10-08T11:22:11;23.60;55.70
802;DHT22;383;48.766;9.270;2023-10-08T11:24:44;23.60;55.90
802;DHT22;383;48.766;9.270;2023-10-08T11:27:13;23.60;54.60
802;DHT22;383;48.766;9.270;2023-10-08T11:29:54;23.60;54.60
802;DHT22;383;48.766;9.270;2023-10-08T11:32:24;23.60;54.70
802;DHT22;383;48.766;9.270;2023-10-08T11:34:54;23.60;53.90
802;DHT22;383;48.766;9.270;2023-10-08T11:37:28;23.60;54.10
802;DHT22;383;48.766;9.270;2023-10-08T11:39:56;23.70;54.40
802;DHT22;383;48.766;9.270;2023-10-08T11:42:24;23.70;53.50
802;DHT22;383;48.766;9.270;2023-10-08T11:45:06;23.70;54.10
802;DHT22;383;48.766;9.270;2023-10-08T11:47:45;23.70;54.40
802;DHT22;383;48.766;9.270;2023-10-08T11:50:14;23.70;54.00
802;DHT22;383;48.766;9.270;2023-10-08T11:52:45;23.70;53.90
802;DHT22;383;48.766;9.270;2023-10-08T11:55:13;23.70;55.10
802;DHT22;383;48.766;9.270;2023-10-08T11:57:45;23.70;55.40
802;DHT22;383;48.766;9.270;2023-10-08T12:00:15;23.80;55.20
802;DHT22;383;48.766;9.270;2023-10-08T12:02:45;23.80;54.60
802;DHT22;383;48.766;9.270;2023-10-08T12:05:12;23.80;54.60
802;DHT22;383;48.766;9.270;2023-10-08T12:07:45;23.90;54.40
802;DHT22;383;48.766;9.270;2023-10-08T12:10:13;24.00;54.30
802;DHT22;383;48.766;9.270;2023-10-08T12:12:42;24.10;53.10
802;DHT22;383;48.766;9.270;2023-10-08T12:15:11;24.20;52.60
802;DHT22;383;48.766;9.270;2023-10-08T12:17:46;24.30;52.40
802;DHT22;383;48.766;9.270;2023-10-08T12:20:33;24.40;52.10
802;DHT22;383;48.766;9.270;2023-10-08T12:23:00;24.40;53.30
802;DHT22;383;48.766;9.270;2023-10-08T12:25:28;24.60;52.00
802;DHT22;383;48.766;9.270;2023-10-08T12:27:58;24.60;51.80
802;DHT22;383;48.766;9.270;2023-10-08T12:30:28;24.70;51.80
802;DHT22;383;48.766;9.270;2023-10-08T12:32:57;24.70;51.90
802;DHT22;383;48.766;9.270;2023-10-08T12:35:24;24.70;52.30
802;DHT22;383;48.766;9.270;2023-10-08T12:37:51;24.80;52.90
802;DHT22;383;48.766;9.270;2023-10-08T12:40:25;24.80;53.30
802;DHT22;383;48.766;9.270;2023-10-08T12:43:09;24.80;52.90
802;DHT22;383;48.766;9.270;2023-10-08T12:45:36;24.80;52.90
802;DHT22;383;48.766;9.270;2023-10-08T12:48:03;24.90;53.00
802;DHT22;383;48.766;9.270;2023-10-08T12:50:33;25.00;52.80
802;DHT22;383;48.766;9.270;2023-10-08T12:53:08;25.00;52.60
802;DHT22;383;48.766;9.270;2023-10-08T12:55:37;25.10;52.40
802;DHT22;383;48.766;9.270;2023-10-08T12:58:05;25.10;52.80
802;DHT22;383;48.766;9.270;2023-10-08T13:00:36;25.10;53.00
802;DHT22;383;48.766;9.270;2023-10-08T13:03:04;25.10;52.60
802;DHT22;383;48.766;9.270;2023-10-08T13:05:40;25.10;52.60
802;DHT22;383;48.766;9.270;2023-10-08T13:08:10;25.10;52.50
802;DHT22;383;48.766;9.270;2023-10-08T13:10:39;25.10;52.60
802;DHT22;383;48.766;9.270;2023-10-08T13:13:09;25.20;51.30
802;DHT22;383;48.766;9.270;2023-10-08T13:15:39;25.30;51.00
802;DHT22;383;48.766;9.270;2023-10-08T13:18:10;25.30;50.80
802;DHT22;383;48.766;9.270;2023-10-08T13:20:37;25.30;51.50
802;DHT22;383;48.766;9.270;2023-10-08T13:23:13;25.30;51.60
802;DHT22;383;48.766;9.270;2023-10-08T13:25:44;25.40;50.70
802;DHT22;383;48.766;9.270;2023-10-08T13:28:17;25.40;50.90
802;DHT22;383;48.766;9.270;2023-10-08T13:30:48;25.40;51.60
802;DHT22;383;48.766;9.270;2023-10-08T13:33:21;25.40;51.00
802;DHT22;383;48.766;9.270;2023-10-08T13:35:48;25.60;50.40
802;DHT22;383;48.766;9.270;2023-10-08T13:38:16;25.60;50.90
802;DHT22;383;48.766;9.270;2023-10-08T13:40:45;25.60;50.00
802;DHT22;383;48.766;9.270;2023-10-08T13:43:28;25.70;50.20
802;DHT22;383;48.766;9.270;2023-10-08T13:46:02;25.70;50.40
802;DHT22;383;48.766;9.270;2023-10-08T13:48:32;25.90;50.20
802;DHT22;383;48.766;9.270;2023-10-08T13:51:00;25.90;49.90
802;DHT22;383;48.766;9.270;2023-10-08T13:53:32;26.00;50.20
802;DHT22;383;48.766;9.270;2023-10-08T13:56:02;26.00;50.70
802;DHT22;383;48.766;9.270;2023-10-08T13:58:30;26.10;49.50
802;DHT22;383;48.766;9.270;2023-10-08T14:01:01;26.10;48.70
802;DHT22;383;48.766;9.270;2023-10-08T14:03:44;26.10;48.40
802;DHT22;383;48.766;9.270;2023-10-08T14:06:10;26.00;48.30
802;DHT22;383;48.766;9.270;2023-10-08T14:08:37;26.10;48.10
802;DHT22;383;48.766;9.270;2023-10-08T14:11:04;26.10;47.60
802;DHT22;383;48.766;9.270;2023-10-08T14:13:32;26.20;48.10
802;DHT22;383;48.766;9.270;2023-10-08T14:16:01;26.20;48.10
802;DHT22;383;48.766;9.270;2023-10-08T14:18:34;26.20;48.20
802;DHT22;383;48.766;9.270;2023-10-08T14:21:06;26.20;47.30
802;DHT22;383;48.766;9.270;2023-10-08T14:23:36;26.20;47.90
802;DHT22;383;48.766;9.270;2023-10-08T14:26:05;26.20;47.80
802;DHT22;383;48.766;9.270;2023-10-08T14:28:33;26.10;48.40
802;DHT22;383;48.766;9.270;2023-10-08T14:31:17;26.00;49.40
802;DHT22;383;48.766;9.270;2023-10-08T14:33:48;25.80;50.00
802;DHT22;383;48.766;9.270;2023-10-08T14:36:30;25.70;50.50
802;DHT22;383;48.766;9.270;2023-10-08T14:39:15;25.60;50.80
802;DHT22;383;48.766;9.270;2023-10-08T14:42:10;25.60;50.80
802;DHT22;383;48.766;9.270;2023-10-08T14:44:54;25.40;50.90
802;DHT22;383;48.766;9.270;2023-10-08T14:47:23;25.30;51.60
802;DHT22;383;48.766;9.270;2023-10-08T14:49:50;25.30;51.50
802;DHT22;383;48.766;9.270;2023-10-08T14:52:17;25.30;51.90
802;DHT22;383;48.766;9.270;2023-10-08T14:54:44;25.20;52.00
802;DHT22;383;48.766;9.270;2023-10-08T14:57:11;25.10;52.10
802;DHT22;383;48.766;9.270;2023-10-08T14:59:40;25.00;52.50
802;DHT22;383;48.766;9.270;2023-10-08T15:02:07;25.00;53.00
802;DHT22;383;48.766;9.270;2023-10-08T15:04:37;24.90;52.80
802;DHT22;383;48.766;9.270;2023-10-08T15:07:05;24.90;52.90
802;DHT22;383;48.766;9.270;2023-10-08T15:09:34;24.90;52.80
802;DHT22;383;48.766;9.270;2023-10-08T15:12:00;24.80;53.30
802;DHT22;383;48.766;9.270;2023-10-08T15:14:27;24.80;53.30
802;DHT22;383;48.766;9.270;2023-10-08T15:16:54;24.70;53.90
802;DHT22;383;48.766;9.270;2023-10-08T15:19:22;24.70;53.60
802;DHT22;383;48.766;9.270;2023-10-08T15:21:51;24.80;53.80
802;DHT22;383;48.766;9.270;2023-10-08T15:24:18;24.80;53.80
802;DHT22;383;48.766;9.270;2023-10-08T15:26:46;24.90;54.30
802;DHT22;383;48.766;9.270;2023-10-08T15:29:14;24.80;54.10
802;DHT22;383;48.766;9.270;2023-10-08T15:31:40;24.90;54.40
802;DHT22;383;48.766;9.270;2023-10-08T15:34:08;24.90;54.00
802;DHT22;383;48.766;9.270;2023-10-08T15:36:37;24.90;54.30
802;DHT22;383;48.766;9.270;2023-10-08T15:39:06;24.80;53.80
802;DHT22;383;48.766;9.270;2023-10-08T15:41:35;24.80;53.90
802;DHT22;383;48.766;9.270;2023-10-08T15:44:02;24.70;54.30
802;DHT22;383;48.766;9.270;2023-10-08T15:46:29;24.70;54.30
802;DHT22;383;48.766;9.270;2023-10-08T15:48:56;24.70;54.60
802;DHT22;383;48.766;9.270;2023-10-08T15:51:22;24.70;55.20
802;DHT22;383;48.766;9.270;2023-10-08T15:53:50;24.60;55.50
802;DHT22;383;48.766;9.270;2023-10-08T15:56:18;24.60;55.60
802;DHT22;383;48.766;9.270;2023-10-08T15:58:45;24.60;56.60
802;DHT22;383;48.766;9.270;2023-10-08T16:01:12;24.50;57.10
802;DHT22;383;48.766;9.270;2023-10-08T16:03:38;24.50;57.80
802;DHT22;383;48.766;9.270;2023-10-08T16:06:05;24.40;58.00
802;DHT22;383;48.766;9.270;2023-10-08T16:08:32;24.30;58.30
802;DHT22;383;48.766;9.270;2023-10-08T16:10:59;24.30;58.60
802;DHT22;383;48.766;9.270;2023-10-08T16:13:27;24.20;59.10
802;DHT22;383;48.766;9.270;2023-10-08T16:15:53;24.10;60.00
802;DHT22;383;48.766;9.270;2023-10-08T16:18:20;24.00;61.50
802;DHT22;383;48.766;9.270;2023-10-08T16:20:47;23.90;61.80
802;DHT22;383;48.766;9.270;2023-10-08T16:23:14;23.80;62.30
802;DHT22;383;48.766;9.270;2023-10-08T16:25:42;23.60;63.10
802;DHT22;383;48.766;9.270;2023-10-08T16:28:09;23.60;65.50
802;DHT22;383;48.766;9.270;2023-10-08T16:30:38;23.40;66.30
802;DHT22;383;48.766;9.270;2023-10-08T16:33:05;23.30;66.40
802;DHT22;383;48.766;9.270;2023-10-08T16:35:32;23.10;66.80
802;DHT22;383;48.766;9.270;2023-10-08T16:37:58;23.00;67.40
802;DHT22;383;48.766;9.270;2023-10-08T16:40:25;22.90;67.60
802;DHT22;383;48.766;9.270;2023-10-08T16:42:55;22.70;67.60
802;DHT22;383;48.766;9.270;2023-10-08T16:45:21;22.60;68.70
802;DHT22;383;48.766;9.270;2023-10-08T16:47:50;22.40;68.70
802;DHT22;383;48.766;9.270;2023-10-08T16:50:17;22.20;69.10
802;DHT22;383;48.766;9.270;2023-10-08T16:52:44;22.10;69.20
802;DHT22;383;48.766;9.270;2023-10-08T16:55:11;21.80;69.70
802;DHT22;383;48.766;9.270;2023-10-08T16:57:39;21.60;70.50
802;DHT22;383;48.766;9.270;2023-10-08T17:00:07;21.40;70.50